TimeEDT,TemperatureF,Dew PointF,Humidity,Sea Level PressureIn,VisibilityMPH,Wind Direction,Wind SpeedMPH,Gust SpeedMPH,PrecipitationIn,Events,Conditions,WindDirDegrees,DateUTC
12:54 AM,61.0,60.1,97,30.17,10.0,Calm,Calm,-,N/A,,Overcast,0,2012-10-04 04:54:00
1:16 AM,62.6,60.8,94,30.16,10.0,Calm,Calm,-,N/A,,Overcast,0,2012-10-04 05:16:00
1:28 AM,62.6,60.8,94,30.16,9.0,Calm,Calm,-,N/A,,Overcast,0,2012-10-04 05:28:00
1:54 AM,63.0,60.1,90,30.16,5.0,Calm,Calm,-,N/A,,Overcast,0,2012-10-04 05:54:00
2:54 AM,62.1,61.0,96,30.15,5.0,Calm,Calm,-,N/A,,Overcast,0,2012-10-04 06:54:00
3:00 AM,62.6,60.8,94,30.15,1.8,Calm,Calm,-,N/A,,Overcast,0,2012-10-04 07:00:00
3:12 AM,62.6,60.8,94,30.15,3.0,Calm,Calm,-,0.01,,Overcast,0,2012-10-04 07:12:00
3:23 AM,62.6,60.8,94,30.15,3.0,Calm,Calm,-,0.01,,Overcast,0,2012-10-04 07:23:00
3:35 AM,62.6,60.8,94,30.16,2.0,Calm,Calm,-,0.01,,Overcast,0,2012-10-04 07:35:00
3:50 AM,62.6,60.8,94,30.15,3.0,Calm,Calm,-,0.01,,Overcast,0,2012-10-04 07:50:00
3:54 AM,62.1,60.1,93,30.15,2.5,Calm,Calm,-,0.01,,Overcast,0,2012-10-04 07:54:00
4:01 AM,62.6,60.8,94,30.15,0.8,Calm,Calm,-,N/A,,Overcast,0,2012-10-04 08:01:00
4:15 AM,62.6,59.0,88,30.16,1.2,Calm,Calm,-,N/A,,Overcast,0,2012-10-04 08:15:00
4:27 AM,62.6,60.8,94,30.15,3.0,Calm,Calm,-,N/A,,Overcast,0,2012-10-04 08:27:00
4:54 AM,62.1,60.1,93,30.15,9.0,Calm,Calm,-,N/A,,Overcast,0,2012-10-04 08:54:00
5:20 AM,62.6,60.8,94,30.16,8.0,Calm,Calm,-,N/A,,Overcast,0,2012-10-04 09:20:00
5:42 AM,62.6,60.8,94,30.16,5.0,Calm,Calm,-,N/A,,Overcast,0,2012-10-04 09:42:00
5:54 AM,62.1,60.1,93,30.17,2.5,Calm,Calm,-,N/A,,Overcast,0,2012-10-04 09:54:00
6:03 AM,62.6,59.0,88,30.17,5.0,Calm,Calm,-,N/A,,Overcast,0,2012-10-04 10:03:00
6:37 AM,62.6,59.0,88,30.15,7.0,Calm,Calm,-,0.00,Rain,Light Rain,0,2012-10-04 10:37:00
6:54 AM,62.1,60.1,93,30.14,10.0,Calm,Calm,-,0.00,,Overcast,0,2012-10-04 10:54:00
7:54 AM,62.1,60.1,93,30.16,5.0,Calm,Calm,-,0.01,Rain,Light Rain,0,2012-10-04 11:54:00
8:54 AM,63.0,60.1,90,30.17,10.0,Calm,Calm,-,0.00,,Overcast,0,2012-10-04 12:54:00
9:54 AM,63.0,60.1,90,30.16,10.0,Calm,Calm,-,N/A,,Overcast,0,2012-10-04 13:54:00
10:54 AM,63.0,59.0,87,30.16,8.0,Calm,Calm,-,N/A,,Overcast,0,2012-10-04 14:54:00
11:54 AM,63.0,59.0,87,30.16,10.0,SSE,3.5,-,N/A,,Overcast,150,2012-10-04 15:54:00
12:54 PM,63.0,60.1,90,30.13,10.0,Variable,4.6,-,0.03,Rain,Light Rain,0,2012-10-04 16:54:00
1:54 PM,64.0,60.1,87,30.07,10.0,Variable,5.8,-,0.00,Rain,Light Rain,0,2012-10-04 17:54:00
2:54 PM,64.0,60.1,87,30.09,10.0,Calm,Calm,-,0.01,,Overcast,0,2012-10-04 18:54:00
3:54 PM,64.9,61.0,87,30.09,10.0,Calm,Calm,-,0.00,Rain,Light Rain,0,2012-10-04 19:54:00
4:54 PM,64.9,61.0,87,30.08,10.0,Calm,Calm,-,0.00,Rain,Light Rain,0,2012-10-04 20:54:00
5:54 PM,64.0,62.1,93,30.06,10.0,Calm,Calm,-,0.01,Rain,Light Rain,0,2012-10-04 21:54:00
6:54 PM,63.0,61.0,93,30.03,10.0,South,3.5,-,0.00,,Overcast,170,2012-10-04 22:54:00
7:28 PM,62.6,60.8,94,30.04,10.0,Calm,Calm,-,N/A,,Overcast,0,2012-10-04 23:28:00
7:54 PM,63.0,61.0,93,30.05,10.0,Calm,Calm,-,N/A,,Overcast,0,2012-10-04 23:54:00
8:54 PM,63.0,60.1,90,30.05,8.0,Calm,Calm,-,N/A,,Overcast,0,2012-10-05 00:54:00
9:54 PM,63.0,60.1,90,30.06,10.0,Calm,Calm,-,N/A,,Overcast,0,2012-10-05 01:54:00
10:54 PM,62.1,60.1,93,30.06,1.5,Calm,Calm,-,N/A,,Overcast,0,2012-10-05 02:54:00
11:06 PM,62.6,60.8,94,30.06,0.5,Calm,Calm,-,N/A,Fog,Fog,0,2012-10-05 03:06:00
11:14 PM,60.8,59.0,94,30.06,0.2,Calm,Calm,-,N/A,Fog,Fog,0,2012-10-05 03:14:00
11:54 PM,60.1,57.9,93,30.05,0.2,Calm,Calm,-,N/A,Fog,Fog,0,2012-10-05 03:54:00